CXA9527 YSSY-YBCG
Flight info
| Callsign | CXA9527 |
|---|---|
| Flight time | 1h 0m |
| Altitude | 33000 |
| Route | OLSEM1/34R OLSEM Y193 BANDA Y43 GREAV GOMOL |
| Aircraft | A320/M-SDE2E3FGHIJ1RWXY/M |
Departure
| Time | 2026-05-06 12:14 |
|---|---|
| Airport | Sydney Kingsford Smith International Airport (YSSY) |
Arrival
| Time | 2026-05-06 13:14 |
|---|---|
| Airport | Gold Coast Airport (YBCG) |
| Time | Latitude | Longitude | Altitude | Speed | Heading |
|---|---|---|---|---|---|
| 2026-05-06 11:38 | -33.93676 | 151.17984 | 28 ft | 0 kts | 280° |
| 2026-05-06 11:54 | -33.93676 | 151.17989 | 29 ft | 2 kts | 280° |
| 2026-05-06 11:54 | -33.93678 | 151.18001 | 29 ft | 1 kts | 280° |
| 2026-05-06 11:55 | -33.93678 | 151.18018 | 29 ft | 2 kts | 253° |
| 2026-05-06 11:55 | -33.93672 | 151.18034 | 29 ft | 2 kts | 231° |
| 2026-05-06 11:55 | -33.93661 | 151.18047 | 29 ft | 2 kts | 208° |
| 2026-05-06 11:55 | -33.93647 | 151.18053 | 29 ft | 1 kts | 186° |
| 2026-05-06 11:56 | -33.93641 | 151.18053 | 29 ft | 1 kts | 179° |
| 2026-05-06 11:56 | -33.93639 | 151.18053 | 29 ft | 0 kts | 181° |
| 2026-05-06 11:58 | -33.93644 | 151.18053 | 28 ft | 1 kts | 181° |
| 2026-05-06 11:58 | -33.93662 | 151.18051 | 29 ft | 3 kts | 180° |
| 2026-05-06 11:59 | -33.93692 | 151.18056 | 29 ft | 5 kts | 169° |
| 2026-05-06 11:59 | -33.93733 | 151.18065 | 29 ft | 6 kts | 173° |
| 2026-05-06 11:59 | -33.93778 | 151.18043 | 28 ft | 7 kts | 247° |
| 2026-05-06 11:59 | -33.93794 | 151.17976 | 28 ft | 9 kts | 253° |
| 2026-05-06 12:00 | -33.93815 | 151.17900 | 28 ft | 10 kts | 250° |
| 2026-05-06 12:00 | -33.93835 | 151.17815 | 28 ft | 11 kts | 254° |
| 2026-05-06 12:00 | -33.93901 | 151.17778 | 28 ft | 12 kts | 169° |
| 2026-05-06 12:00 | -33.93986 | 151.17804 | 28 ft | 12 kts | 166° |
| 2026-05-06 12:01 | -33.94076 | 151.17828 | 28 ft | 13 kts | 168° |
| 2026-05-06 12:01 | -33.94172 | 151.17851 | 28 ft | 14 kts | 169° |
| 2026-05-06 12:01 | -33.94272 | 151.17874 | 28 ft | 14 kts | 169° |
| 2026-05-06 12:01 | -33.94373 | 151.17902 | 29 ft | 15 kts | 167° |
| 2026-05-06 12:02 | -33.94476 | 151.17900 | 29 ft | 15 kts | 200° |
| 2026-05-06 12:02 | -33.94579 | 151.17896 | 29 ft | 15 kts | 171° |
| 2026-05-06 12:02 | -33.94681 | 151.17925 | 29 ft | 15 kts | 169° |
| 2026-05-06 12:02 | -33.94788 | 151.17949 | 29 ft | 15 kts | 169° |
| 2026-05-06 12:03 | -33.94897 | 151.17975 | 29 ft | 16 kts | 166° |
| 2026-05-06 12:03 | -33.95007 | 151.18008 | 29 ft | 16 kts | 167° |
| 2026-05-06 12:03 | -33.95087 | 151.18041 | 28 ft | 10 kts | 131° |
| 2026-05-06 12:03 | -33.95099 | 151.18132 | 28 ft | 11 kts | 86° |
| 2026-05-06 12:04 | -33.95079 | 151.18233 | 29 ft | 12 kts | 76° |
| 2026-05-06 12:04 | -33.95059 | 151.18338 | 29 ft | 13 kts | 79° |
| 2026-05-06 12:04 | -33.95044 | 151.18422 | 29 ft | 0 kts | 77° |
| 2026-05-06 12:07 | -33.95044 | 151.18425 | 29 ft | 1 kts | 78° |
| 2026-05-06 12:07 | -33.95042 | 151.18446 | 29 ft | 6 kts | 90° |
| 2026-05-06 12:08 | -33.95080 | 151.18515 | 29 ft | 12 kts | 144° |
| 2026-05-06 12:08 | -33.95151 | 151.18579 | 29 ft | 13 kts | 138° |
| 2026-05-06 12:08 | -33.95222 | 151.18654 | 29 ft | 14 kts | 141° |
| 2026-05-06 12:08 | -33.95311 | 151.18715 | 29 ft | 15 kts | 161° |
| 2026-05-06 12:09 | -33.95421 | 151.18750 | 29 ft | 17 kts | 168° |
| 2026-05-06 12:09 | -33.95542 | 151.18779 | 29 ft | 18 kts | 169° |
| 2026-05-06 12:09 | -33.95673 | 151.18813 | 29 ft | 19 kts | 166° |
| 2026-05-06 12:09 | -33.95807 | 151.18852 | 29 ft | 20 kts | 167° |
| 2026-05-06 12:10 | -33.95951 | 151.18889 | 29 ft | 21 kts | 170° |
| 2026-05-06 12:10 | -33.96099 | 151.18921 | 29 ft | 21 kts | 169° |
| 2026-05-06 12:10 | -33.96250 | 151.18956 | 29 ft | 22 kts | 169° |
| 2026-05-06 12:10 | -33.96401 | 151.19006 | 29 ft | 22 kts | 166° |
| 2026-05-06 12:11 | -33.96547 | 151.19043 | 29 ft | 21 kts | 171° |
| 2026-05-06 12:11 | -33.96692 | 151.19075 | 29 ft | 20 kts | 173° |
| 2026-05-06 12:11 | -33.96830 | 151.19070 | 29 ft | 19 kts | 168° |
| 2026-05-06 12:11 | -33.96965 | 151.19104 | 29 ft | 19 kts | 165° |
| 2026-05-06 12:12 | -33.97095 | 151.19148 | 29 ft | 18 kts | 144° |
| 2026-05-06 12:12 | -33.97113 | 151.19264 | 28 ft | 0 kts | 77° |
| 2026-05-06 12:13 | -33.97109 | 151.19284 | 29 ft | 4 kts | 77° |
| 2026-05-06 12:13 | -33.97096 | 151.19339 | 29 ft | 8 kts | 63° |
| 2026-05-06 12:13 | -33.97030 | 151.19367 | 29 ft | 13 kts | 348° |
| 2026-05-06 12:14 | -33.96670 | 151.19273 | 29 ft | 106 kts | 348° |
| 2026-05-06 12:14 | -33.95646 | 151.18997 | 146 ft | 183 kts | 347° |
| 2026-05-06 12:14 | -33.94387 | 151.18672 | 1101 ft | 186 kts | 351° |
| 2026-05-06 12:14 | -33.93158 | 151.18732 | 2132 ft | 181 kts | 24° |
| 2026-05-06 12:15 | -33.92078 | 151.19504 | 2940 ft | 192 kts | 41° |
| 2026-05-06 12:15 | -33.91008 | 151.20554 | 3735 ft | 209 kts | 43° |
| 2026-05-06 12:15 | -33.89835 | 151.21707 | 4476 ft | 231 kts | 41° |
| 2026-05-06 12:15 | -33.88514 | 151.22942 | 4884 ft | 260 kts | 39° |
| 2026-05-06 12:16 | -33.86977 | 151.24316 | 5095 ft | 282 kts | 37° |
| 2026-05-06 12:16 | -33.85379 | 151.25709 | 5102 ft | 285 kts | 37° |
| 2026-05-06 12:16 | -33.83841 | 151.27212 | 5101 ft | 283 kts | 50° |
| 2026-05-06 12:16 | -33.82820 | 151.29204 | 5106 ft | 279 kts | 72° |
| 2026-05-06 12:17 | -33.82226 | 151.31412 | 5107 ft | 277 kts | 77° |
| 2026-05-06 12:17 | -33.81696 | 151.33629 | 5105 ft | 277 kts | 77° |
| 2026-05-06 12:17 | -33.81155 | 151.35858 | 5132 ft | 282 kts | 75° |
| 2026-05-06 12:17 | -33.80233 | 151.38005 | 5689 ft | 301 kts | 56° |
| 2026-05-06 12:18 | -33.78911 | 151.39941 | 7017 ft | 303 kts | 51° |
| 2026-05-06 12:18 | -33.77538 | 151.41818 | 8318 ft | 305 kts | 52° |
| 2026-05-06 12:18 | -33.76152 | 151.43742 | 9472 ft | 311 kts | 53° |
| 2026-05-06 12:18 | -33.74773 | 151.45718 | 10580 ft | 316 kts | 54° |
| 2026-05-06 12:19 | -33.73362 | 151.47784 | 11520 ft | 328 kts | 54° |
| 2026-05-06 12:19 | -33.71921 | 151.49913 | 12533 ft | 335 kts | 54° |
| 2026-05-06 12:19 | -33.70457 | 151.52078 | 13564 ft | 340 kts | 54° |
| 2026-05-06 12:19 | -33.68965 | 151.54288 | 14594 ft | 346 kts | 54° |
| 2026-05-06 12:20 | -33.67428 | 151.56561 | 15603 ft | 351 kts | 54° |
| 2026-05-06 12:20 | -33.65869 | 151.58823 | 16580 ft | 357 kts | 51° |
| 2026-05-06 12:20 | -33.64089 | 151.60906 | 17542 ft | 364 kts | 42° |
| 2026-05-06 12:20 | -33.62056 | 151.62717 | 18479 ft | 370 kts | 35° |
| 2026-05-06 12:21 | -33.59901 | 151.64410 | 19403 ft | 375 kts | 33° |
| 2026-05-06 12:21 | -33.57699 | 151.66098 | 20295 ft | 380 kts | 33° |
| 2026-05-06 12:21 | -33.55476 | 151.67813 | 21165 ft | 384 kts | 32° |
| 2026-05-06 12:21 | -33.53237 | 151.69557 | 22026 ft | 389 kts | 33° |
| 2026-05-06 12:22 | -33.50944 | 151.71289 | 22863 ft | 393 kts | 28° |
| 2026-05-06 12:22 | -33.48489 | 151.72717 | 23668 ft | 396 kts | 20° |
| 2026-05-06 12:22 | -33.45846 | 151.73781 | 24442 ft | 399 kts | 13° |
| 2026-05-06 12:22 | -33.43151 | 151.74651 | 25156 ft | 404 kts | 12° |
| 2026-05-06 12:23 | -33.40423 | 151.75496 | 25846 ft | 409 kts | 12° |
| 2026-05-06 12:23 | -33.37665 | 151.76361 | 26500 ft | 415 kts | 12° |
| 2026-05-06 12:23 | -33.34862 | 151.77257 | 27135 ft | 420 kts | 12° |
| 2026-05-06 12:23 | -33.32038 | 151.78168 | 27741 ft | 423 kts | 12° |
| 2026-05-06 12:24 | -33.29187 | 151.79089 | 28109 ft | 422 kts | 12° |
| 2026-05-06 12:24 | -33.26358 | 151.80003 | 28176 ft | 422 kts | 12° |
| 2026-05-06 12:24 | -33.20679 | 151.81834 | 28181 ft | 421 kts | 12° |
| 2026-05-06 12:25 | -33.15034 | 151.83650 | 28182 ft | 424 kts | 12° |
| 2026-05-06 12:25 | -33.12128 | 151.84582 | 28183 ft | 444 kts | 12° |
| 2026-05-06 12:25 | -33.09055 | 151.85565 | 28182 ft | 463 kts | 12° |
| 2026-05-06 12:26 | -33.05893 | 151.86578 | 28179 ft | 481 kts | 12° |
| 2026-05-06 12:26 | -33.02616 | 151.87628 | 28177 ft | 497 kts | 12° |
| 2026-05-06 12:26 | -32.99237 | 151.88711 | 28178 ft | 510 kts | 12° |
| 2026-05-06 12:26 | -32.95784 | 151.89819 | 28297 ft | 518 kts | 13° |
| 2026-05-06 12:27 | -32.92289 | 151.90941 | 28445 ft | 524 kts | 13° |
| 2026-05-06 12:27 | -32.88733 | 151.92082 | 29017 ft | 519 kts | 12° |
| 2026-05-06 12:27 | -32.85298 | 151.93188 | 29776 ft | 511 kts | 12° |
| 2026-05-06 12:27 | -32.81849 | 151.94295 | 30572 ft | 505 kts | 12° |
| 2026-05-06 12:28 | -32.78478 | 151.95373 | 31381 ft | 500 kts | 12° |
| 2026-05-06 12:28 | -32.75148 | 151.96439 | 32197 ft | 495 kts | 12° |
| 2026-05-06 12:28 | -32.71849 | 151.97488 | 32852 ft | 493 kts | 11° |
| 2026-05-06 12:28 | -32.68534 | 151.98543 | 33162 ft | 498 kts | 11° |
| 2026-05-06 12:29 | -32.61778 | 152.00684 | 33175 ft | 505 kts | 11° |
| 2026-05-06 12:29 | -32.54957 | 152.02849 | 33175 ft | 505 kts | 11° |
| 2026-05-06 12:30 | -32.48197 | 152.04991 | 33177 ft | 503 kts | 11° |
| 2026-05-06 12:30 | -32.41446 | 152.07130 | 33174 ft | 503 kts | 11° |
| 2026-05-06 12:31 | -32.34695 | 152.09264 | 33174 ft | 503 kts | 11° |
| 2026-05-06 12:31 | -32.27943 | 152.11394 | 33178 ft | 503 kts | 11° |
| 2026-05-06 12:32 | -32.21157 | 152.13533 | 33177 ft | 503 kts | 11° |
| 2026-05-06 12:32 | -32.14420 | 152.15654 | 33176 ft | 501 kts | 11° |
| 2026-05-06 12:33 | -32.07658 | 152.17778 | 33176 ft | 501 kts | 11° |
| 2026-05-06 12:33 | -32.00934 | 152.19887 | 33176 ft | 501 kts | 11° |
| 2026-05-06 12:34 | -31.94216 | 152.21992 | 33175 ft | 500 kts | 11° |
| 2026-05-06 12:34 | -31.87480 | 152.24098 | 33168 ft | 501 kts | 11° |
| 2026-05-06 12:35 | -31.80707 | 152.26211 | 33168 ft | 501 kts | 11° |
| 2026-05-06 12:35 | -31.73957 | 152.28317 | 33169 ft | 501 kts | 11° |
| 2026-05-06 12:36 | -31.67211 | 152.30417 | 33170 ft | 501 kts | 11° |
| 2026-05-06 12:36 | -31.60479 | 152.32509 | 33167 ft | 501 kts | 11° |
| 2026-05-06 12:37 | -31.53729 | 152.34604 | 33169 ft | 501 kts | 11° |
| 2026-05-06 12:37 | -31.46995 | 152.36691 | 33163 ft | 502 kts | 11° |
| 2026-05-06 12:38 | -31.40258 | 152.38777 | 33164 ft | 501 kts | 10° |
| 2026-05-06 12:38 | -31.33485 | 152.40871 | 33160 ft | 501 kts | 10° |
| 2026-05-06 12:39 | -31.26747 | 152.42947 | 33160 ft | 501 kts | 10° |
| 2026-05-06 12:39 | -31.20037 | 152.45013 | 33158 ft | 501 kts | 10° |
| 2026-05-06 12:40 | -31.13271 | 152.47096 | 33158 ft | 502 kts | 10° |
| 2026-05-06 12:40 | -31.06536 | 152.49167 | 33154 ft | 502 kts | 10° |
| 2026-05-06 12:41 | -30.99765 | 152.51244 | 33150 ft | 500 kts | 10° |
| 2026-05-06 12:41 | -30.93045 | 152.53301 | 33145 ft | 500 kts | 10° |
| 2026-05-06 12:42 | -30.86312 | 152.55360 | 33151 ft | 500 kts | 10° |
| 2026-05-06 12:42 | -30.79587 | 152.57573 | 33150 ft | 504 kts | 14° |
| 2026-05-06 12:43 | -30.72999 | 152.60492 | 33144 ft | 507 kts | 18° |
| 2026-05-06 12:43 | -30.66422 | 152.63562 | 33134 ft | 507 kts | 17° |
| 2026-05-06 12:44 | -30.59919 | 152.66586 | 33136 ft | 506 kts | 17° |
| 2026-05-06 12:44 | -30.53341 | 152.69669 | 33143 ft | 507 kts | 16° |
| 2026-05-06 12:45 | -30.46800 | 152.72649 | 33126 ft | 506 kts | 16° |
| 2026-05-06 12:46 | -30.36936 | 152.77168 | 33134 ft | 508 kts | 17° |
| 2026-05-06 12:46 | -30.30385 | 152.80185 | 33137 ft | 508 kts | 17° |
| 2026-05-06 12:47 | -30.23833 | 152.83199 | 32775 ft | 509 kts | 17° |
| 2026-05-06 12:47 | -30.20515 | 152.84721 | 32373 ft | 505 kts | 17° |
| 2026-05-06 12:47 | -30.17291 | 152.86206 | 31980 ft | 491 kts | 17° |
| 2026-05-06 12:47 | -30.14167 | 152.87642 | 31597 ft | 483 kts | 17° |
| 2026-05-06 12:48 | -30.11016 | 152.89081 | 31200 ft | 481 kts | 17° |
| 2026-05-06 12:48 | -30.07914 | 152.90494 | 30808 ft | 482 kts | 17° |
| 2026-05-06 12:48 | -30.04823 | 152.91902 | 30422 ft | 482 kts | 17° |
| 2026-05-06 12:48 | -30.01673 | 152.93338 | 30024 ft | 482 kts | 17° |
| 2026-05-06 12:49 | -29.98573 | 152.94750 | 29634 ft | 483 kts | 17° |
| 2026-05-06 12:49 | -29.95457 | 152.96170 | 29159 ft | 484 kts | 17° |
| 2026-05-06 12:49 | -29.92298 | 152.97607 | 28631 ft | 485 kts | 18° |
| 2026-05-06 12:49 | -29.89171 | 152.99033 | 28111 ft | 486 kts | 18° |
| 2026-05-06 12:50 | -29.86000 | 153.00476 | 27589 ft | 486 kts | 18° |
| 2026-05-06 12:50 | -29.82838 | 153.01914 | 27071 ft | 487 kts | 18° |
| 2026-05-06 12:50 | -29.79675 | 153.03351 | 26550 ft | 489 kts | 18° |
| 2026-05-06 12:50 | -29.76517 | 153.04787 | 26034 ft | 490 kts | 18° |
| 2026-05-06 12:51 | -29.73321 | 153.06238 | 25514 ft | 491 kts | 18° |
| 2026-05-06 12:51 | -29.70159 | 153.07672 | 25003 ft | 492 kts | 18° |
| 2026-05-06 12:51 | -29.66987 | 153.09111 | 24491 ft | 493 kts | 18° |
| 2026-05-06 12:51 | -29.63769 | 153.10568 | 23978 ft | 494 kts | 19° |
| 2026-05-06 12:52 | -29.60588 | 153.12009 | 23473 ft | 496 kts | 19° |
| 2026-05-06 12:52 | -29.57349 | 153.13475 | 22967 ft | 497 kts | 19° |
| 2026-05-06 12:52 | -29.54144 | 153.14925 | 22476 ft | 498 kts | 19° |
| 2026-05-06 12:52 | -29.50937 | 153.16371 | 21980 ft | 497 kts | 19° |
| 2026-05-06 12:53 | -29.47722 | 153.17821 | 21485 ft | 498 kts | 19° |
| 2026-05-06 12:53 | -29.44464 | 153.19292 | 20985 ft | 499 kts | 20° |
| 2026-05-06 12:53 | -29.41247 | 153.20741 | 20483 ft | 498 kts | 20° |
| 2026-05-06 12:53 | -29.38084 | 153.22168 | 19781 ft | 486 kts | 20° |
| 2026-05-06 12:54 | -29.34961 | 153.23576 | 19225 ft | 470 kts | 20° |
| 2026-05-06 12:54 | -29.31969 | 153.24924 | 18734 ft | 463 kts | 20° |
| 2026-05-06 12:54 | -29.28957 | 153.26279 | 18239 ft | 461 kts | 20° |
| 2026-05-06 12:54 | -29.25978 | 153.27618 | 17747 ft | 461 kts | 21° |
| 2026-05-06 12:55 | -29.22998 | 153.28957 | 17260 ft | 462 kts | 21° |
| 2026-05-06 12:55 | -29.20009 | 153.30298 | 16772 ft | 463 kts | 21° |
| 2026-05-06 12:55 | -29.16987 | 153.31656 | 16277 ft | 463 kts | 21° |
| 2026-05-06 12:55 | -29.14018 | 153.32987 | 15785 ft | 456 kts | 21° |
| 2026-05-06 12:56 | -29.11129 | 153.34282 | 15298 ft | 442 kts | 21° |
| 2026-05-06 12:56 | -29.08244 | 153.35574 | 14804 ft | 440 kts | 21° |
| 2026-05-06 12:56 | -29.05399 | 153.36847 | 14316 ft | 441 kts | 21° |
| 2026-05-06 12:56 | -29.02551 | 153.38121 | 13828 ft | 442 kts | 21° |
| 2026-05-06 12:57 | -28.99696 | 153.39398 | 13353 ft | 442 kts | 21° |
| 2026-05-06 12:57 | -28.96801 | 153.40695 | 13118 ft | 442 kts | 21° |
| 2026-05-06 12:57 | -28.93933 | 153.41978 | 13104 ft | 443 kts | 21° |
| 2026-05-06 12:57 | -28.91066 | 153.43260 | 13107 ft | 443 kts | 21° |
| 2026-05-06 12:58 | -28.88182 | 153.44547 | 13109 ft | 443 kts | 21° |
| 2026-05-06 12:58 | -28.85380 | 153.45795 | 13107 ft | 444 kts | 21° |
| 2026-05-06 12:58 | -28.82597 | 153.47034 | 13100 ft | 444 kts | 21° |
| 2026-05-06 12:58 | -28.79685 | 153.48328 | 13101 ft | 444 kts | 21° |
| 2026-05-06 12:59 | -28.76820 | 153.49603 | 13099 ft | 444 kts | 21° |
| 2026-05-06 12:59 | -28.73960 | 153.50874 | 13104 ft | 444 kts | 21° |
| 2026-05-06 12:59 | -28.71060 | 153.52164 | 12884 ft | 438 kts | 21° |
| 2026-05-06 12:59 | -28.68280 | 153.53400 | 12392 ft | 423 kts | 21° |
| 2026-05-06 13:00 | -28.65563 | 153.54607 | 11894 ft | 420 kts | 21° |
| 2026-05-06 13:00 | -28.62818 | 153.55826 | 11402 ft | 421 kts | 21° |
| 2026-05-06 13:00 | -28.60105 | 153.57028 | 10916 ft | 421 kts | 21° |
| 2026-05-06 13:00 | -28.57342 | 153.58252 | 10421 ft | 422 kts | 21° |
| 2026-05-06 13:01 | -28.54612 | 153.59460 | 9928 ft | 423 kts | 21° |
| 2026-05-06 13:01 | -28.51876 | 153.60634 | 9440 ft | 416 kts | 18° |
| 2026-05-06 13:01 | -28.49172 | 153.61671 | 9134 ft | 396 kts | 18° |
| 2026-05-06 13:01 | -28.46642 | 153.62619 | 9088 ft | 370 kts | 17° |
| 2026-05-06 13:02 | -28.44276 | 153.63506 | 9071 ft | 348 kts | 17° |
| 2026-05-06 13:02 | -28.42018 | 153.64352 | 8730 ft | 338 kts | 17° |
| 2026-05-06 13:02 | -28.39814 | 153.65183 | 8356 ft | 330 kts | 17° |
| 2026-05-06 13:02 | -28.37645 | 153.65985 | 8027 ft | 321 kts | 16° |
| 2026-05-06 13:03 | -28.35554 | 153.66744 | 7725 ft | 312 kts | 16° |
| 2026-05-06 13:03 | -28.33510 | 153.67482 | 7362 ft | 306 kts | 16° |
| 2026-05-06 13:03 | -28.31474 | 153.68219 | 6991 ft | 301 kts | 16° |
| 2026-05-06 13:03 | -28.29496 | 153.68916 | 6623 ft | 295 kts | 12° |
| 2026-05-06 13:04 | -28.27494 | 153.69035 | 6248 ft | 285 kts | 347° |
| 2026-05-06 13:04 | -28.25625 | 153.68405 | 5887 ft | 279 kts | 337° |
| 2026-05-06 13:04 | -28.23792 | 153.67630 | 5516 ft | 278 kts | 336° |
| 2026-05-06 13:04 | -28.22262 | 153.66968 | 5409 ft | 274 kts | 339° |
| 2026-05-06 13:05 | -28.20496 | 153.66234 | 5159 ft | 269 kts | 340° |
| 2026-05-06 13:05 | -28.18741 | 153.65526 | 4910 ft | 268 kts | 340° |
| 2026-05-06 13:05 | -28.16988 | 153.64822 | 4660 ft | 267 kts | 340° |
| 2026-05-06 13:05 | -28.15220 | 153.64116 | 4408 ft | 266 kts | 340° |
| 2026-05-06 13:06 | -28.13485 | 153.63422 | 4159 ft | 265 kts | 340° |
| 2026-05-06 13:06 | -28.11751 | 153.62727 | 3910 ft | 264 kts | 340° |
| 2026-05-06 13:06 | -28.10001 | 153.62027 | 3657 ft | 263 kts | 340° |
| 2026-05-06 13:06 | -28.08284 | 153.61340 | 3409 ft | 262 kts | 340° |
| 2026-05-06 13:07 | -28.06568 | 153.60654 | 3159 ft | 261 kts | 340° |
| 2026-05-06 13:07 | -28.04855 | 153.59969 | 2909 ft | 260 kts | 340° |
| 2026-05-06 13:07 | -28.03195 | 153.59117 | 2645 ft | 259 kts | 322° |
| 2026-05-06 13:07 | -28.02136 | 153.57524 | 2507 ft | 254 kts | 290° |
| 2026-05-06 13:08 | -28.01884 | 153.55556 | 2510 ft | 258 kts | 269° |
| 2026-05-06 13:08 | -28.01940 | 153.53505 | 2507 ft | 259 kts | 268° |
| 2026-05-06 13:08 | -28.01996 | 153.51488 | 2501 ft | 252 kts | 268° |
| 2026-05-06 13:08 | -28.02037 | 153.49577 | 2496 ft | 235 kts | 268° |
| 2026-05-06 13:09 | -28.02066 | 153.47801 | 2493 ft | 219 kts | 269° |
| 2026-05-06 13:09 | -28.02089 | 153.46141 | 2491 ft | 204 kts | 269° |
| 2026-05-06 13:09 | -28.02109 | 153.44597 | 2490 ft | 189 kts | 269° |
| 2026-05-06 13:09 | -28.02216 | 153.43211 | 2544 ft | 168 kts | 251° |
| 2026-05-06 13:10 | -28.02934 | 153.42305 | 2514 ft | 146 kts | 203° |
| 2026-05-06 13:10 | -28.03845 | 153.42340 | 2470 ft | 131 kts | 155° |
| 2026-05-06 13:10 | -28.04620 | 153.42871 | 2479 ft | 130 kts | 145° |
| 2026-05-06 13:10 | -28.05377 | 153.43449 | 2330 ft | 130 kts | 146° |
| 2026-05-06 13:11 | -28.06147 | 153.43994 | 2155 ft | 129 kts | 148° |
| 2026-05-06 13:11 | -28.06922 | 153.44513 | 1983 ft | 129 kts | 149° |
| 2026-05-06 13:11 | -28.07700 | 153.45016 | 1812 ft | 129 kts | 150° |
| 2026-05-06 13:11 | -28.08482 | 153.45515 | 1640 ft | 128 kts | 150° |
| 2026-05-06 13:12 | -28.09261 | 153.46011 | 1469 ft | 128 kts | 150° |
| 2026-05-06 13:12 | -28.10030 | 153.46498 | 1301 ft | 128 kts | 150° |
| 2026-05-06 13:12 | -28.10807 | 153.46992 | 1130 ft | 127 kts | 150° |
| 2026-05-06 13:12 | -28.11581 | 153.47484 | 961 ft | 127 kts | 150° |
| 2026-05-06 13:13 | -28.12353 | 153.47974 | 792 ft | 127 kts | 150° |
| 2026-05-06 13:13 | -28.13124 | 153.48465 | 624 ft | 126 kts | 150° |
| 2026-05-06 13:13 | -28.13891 | 153.48956 | 443 ft | 126 kts | 149° |
| 2026-05-06 13:13 | -28.14652 | 153.49454 | 274 ft | 126 kts | 149° |
| 2026-05-06 13:14 | -28.15420 | 153.49933 | 120 ft | 126 kts | 152° |
| 2026-05-06 13:14 | -28.16149 | 153.50386 | 27 ft | 104 kts | 150° |
| 2026-05-06 13:14 | -28.16551 | 153.50641 | 26 ft | 42 kts | 151° |
| 2026-05-06 13:14 | -28.16782 | 153.50790 | 24 ft | 28 kts | 150° |
| 2026-05-06 13:15 | -28.16940 | 153.50893 | 23 ft | 15 kts | 150° |
| 2026-05-06 13:15 | -28.16933 | 153.50974 | 23 ft | 13 kts | 54° |
| 2026-05-06 13:15 | -28.16893 | 153.51054 | 23 ft | 11 kts | 63° |
| 2026-05-06 13:15 | -28.16851 | 153.51138 | 23 ft | 12 kts | 59° |
| 2026-05-06 13:16 | -28.16804 | 153.51215 | 24 ft | 5 kts | 59° |
| 2026-05-06 13:16 | -28.16786 | 153.51250 | 24 ft | 1 kts | 60° |
| 2026-05-06 13:16 | -28.16786 | 153.51251 | 24 ft | 0 kts | 61° |